Historique des mesures à Cassis (13260), France
Quotidien Résumé Mars 23, 2017 Unités:  Métrique    US   Métrique/US
« Précédent (Jour)
Suivant (Jour) »
Quotidien Hebdomadaire Mensuel Annuel Période au choix
  Maximum: Minimum: Moyenne:
Température: TemperatureC °C 12.8 °C 14.1 °C
Point de rosée: DewpointC °C 10.4 °C 11.1 °C
Humidité: Humidity % 76 % 78 %
Vitesse du vent: 0 km/h 0 km/h 9 km/h
Rafales: 0 km/h - -
Vent:- - SSE
Pression: PressurehPa hPa 1007.3 hPa -
Précipitations: 7.9 mm    
Historical Graphs
 
 
Mesures pour : Mars 23, 2017
Heure Temperature Point de rosée Pression Vent Vitesse du vent Rafales Humidité Pluie (par heure) Conditions
TemperatureC °C DewpointC °C PressurehPa hPa Calm     Humidity % HourlyPrecipMM mm SoftwareType W/m2
00:11 14.2 °C 10.4 °C 1009.4 hPa South 30.1 km/h 30.1 km/h 78 % 0.0 mm open2300-1.11 W/m2
01:10 14.2 °C 10.6 °C 1009.0 hPa Calm   15.6 km/h 79 % 0.0 mm open2300-1.11 W/m2
02:11 13.8 °C 10.8 °C 1008.7 hPa Calm     82 % 2.0 mm open2300-1.11 W/m2
03:10 13.8 °C 11.1 °C 1008.0 hPa NW 2.9 km/h 2.9 km/h 84 % 0.0 mm open2300-1.11 W/m2
04:11 13.8 °C 11.3 °C 1007.3 hPa WNW 4.7 km/h 4.7 km/h 85 % 0.5 mm open2300-1.11 W/m2
05:10 13.8 °C 11.5 °C 1007.3 hPa Calm   7.6 km/h 86 % 0.0 mm open2300-1.11 W/m2
06:11 13.8 °C 11.5 °C 1007.7 hPa SSE 4.2 km/h 4.2 km/h 86 % 0.0 mm open2300-1.11 W/m2
07:10 13.8 °C 11.5 °C 1008.0 hPa SE 5.6 km/h 9.8 km/h 86 % 0.0 mm open2300-1.11 W/m2
08:11 13.8 °C 11.3 °C 1008.4 hPa Calm   10.9 km/h 85 % 0.0 mm open2300-1.11 W/m2
09:10 14.2 °C 11.5 °C 1008.7 hPa ESE 2.3 km/h 10.3 km/h 84 % 0.0 mm open2300-1.11 W/m2
10:11 14.7 °C 11.8 °C 1009.0 hPa West 17.9 km/h 17.9 km/h 83 % 0.0 mm open2300-1.11 W/m2
11:10 15.3 °C 12.3 °C 1009.0 hPa SSE 9.8 km/h 13.2 km/h 82 % 0.0 mm open2300-1.11 W/m2
12:11 15.6 °C 12.2 °C 1009.0 hPa SSE 19.2 km/h 19.2 km/h 80 % 0.0 mm open2300-1.11 W/m2
13:10 16.3 °C 12.9 °C 1009.4 hPa ESE 42.6 km/h 42.6 km/h 80 % 0.0 mm open2300-1.11 W/m2
14:11 16.4 °C 12.8 °C 1008.7 hPa East 7.6 km/h 10.9 km/h 79 % 0.0 mm open2300-1.11 W/m2
15:10 16.4 °C 12.3 °C 1009.4 hPa NE 3.4 km/h 10.9 km/h 77 % 0.0 mm open2300-1.11 W/m2
16:11 16.3 °C 12.1 °C 1009.4 hPa SSW 12.7 km/h 12.7 km/h 76 % 0.0 mm open2300-1.11 W/m2
17:10 15.9 °C 11.7 °C 1009.7 hPa Calm   4.7 km/h 76 % 0.0 mm open2300-1.11 W/m2
18:11 15.3 °C 11.5 °C 1010.0 hPa SE 9.8 km/h 9.8 km/h 78 % 0.0 mm open2300-1.11 W/m2
19:11 15.1 °C 11.5 °C 1010.0 hPa ESE 15.6 km/h 15.6 km/h 79 % 0.0 mm open2300-1.11 W/m2
20:11 14.9 °C 11.7 °C 1011.1 hPa SE 14 km/h 14 km/h 81 % 0.0 mm open2300-1.11 W/m2
21:10 14.2 °C 11.3 °C 1011.7 hPa SE 15 km/h 15 km/h 83 % 0.5 mm open2300-1.11 W/m2
22:11 13.3 °C 10.6 °C 1012.4 hPa SE 3.4 km/h 9.3 km/h 84 % 1.0 mm open2300-1.11 W/m2
23:10 12.8 °C 10.5 °C 1013.4 hPa South 3.4 km/h 9.3 km/h 86 % 3.6 mm open2300-1.11 W/m2
Observations météo à CASSIS
WU-History script by Weather Underground - 1 mb